sensor_id;sensor_type;location;lat;lon;timestamp;P1;durP1;ratioP1;P2;durP2;ratioP2
22557;SDS011;11445;53.816;8.902;2023-04-26T00:00:32;10.07;;;1.40;;
22557;SDS011;11445;53.816;8.902;2023-04-26T00:02:59;9.90;;;1.50;;
22557;SDS011;11445;53.816;8.902;2023-04-26T00:05:27;8.80;;;1.27;;
22557;SDS011;11445;53.816;8.902;2023-04-26T00:07:56;8.75;;;1.55;;
22557;SDS011;11445;53.816;8.902;2023-04-26T00:10:23;11.45;;;1.38;;
22557;SDS011;11445;53.816;8.902;2023-04-26T00:12:50;9.18;;;1.75;;
22557;SDS011;11445;53.816;8.902;2023-04-26T00:15:17;8.73;;;2.10;;
22557;SDS011;11445;53.816;8.902;2023-04-26T00:17:44;6.53;;;1.70;;
22557;SDS011;11445;53.816;8.902;2023-04-26T00:20:12;12.13;;;1.63;;
22557;SDS011;11445;53.816;8.902;2023-04-26T00:22:39;8.48;;;2.20;;
22557;SDS011;11445;53.816;8.902;2023-04-26T00:25:09;8.07;;;1.63;;
22557;SDS011;11445;53.816;8.902;2023-04-26T00:27:38;10.65;;;1.58;;
22557;SDS011;11445;53.816;8.902;2023-04-26T00:30:05;7.93;;;1.65;;
22557;SDS011;11445;53.816;8.902;2023-04-26T00:32:33;6.82;;;1.45;;
22557;SDS011;11445;53.816;8.902;2023-04-26T00:35:02;24.75;;;2.88;;
22557;SDS011;11445;53.816;8.902;2023-04-26T00:37:30;6.35;;;1.90;;
22557;SDS011;11445;53.816;8.902;2023-04-26T00:39:57;10.63;;;1.60;;
22557;SDS011;11445;53.816;8.902;2023-04-26T00:42:27;10.35;;;1.70;;
22557;SDS011;11445;53.816;8.902;2023-04-26T00:44:54;7.22;;;1.90;;
22557;SDS011;11445;53.816;8.902;2023-04-26T00:47:21;8.20;;;1.85;;
22557;SDS011;11445;53.816;8.902;2023-04-26T00:49:49;9.05;;;1.60;;
22557;SDS011;11445;53.816;8.902;2023-04-26T00:52:17;11.38;;;1.52;;
22557;SDS011;11445;53.816;8.902;2023-04-26T00:54:44;8.60;;;1.48;;
22557;SDS011;11445;53.816;8.902;2023-04-26T00:57:12;4.30;;;1.15;;
22557;SDS011;11445;53.816;8.902;2023-04-26T00:59:40;5.85;;;1.42;;
22557;SDS011;11445;53.816;8.902;2023-04-26T01:02:07;4.75;;;1.20;;
22557;SDS011;11445;53.816;8.902;2023-04-26T01:04:34;4.13;;;1.25;;
22557;SDS011;11445;53.816;8.902;2023-04-26T01:07:01;4.53;;;1.23;;
22557;SDS011;11445;53.816;8.902;2023-04-26T01:09:29;6.80;;;1.75;;
22557;SDS011;11445;53.816;8.902;2023-04-26T01:11:57;15.02;;;1.40;;
22557;SDS011;11445;53.816;8.902;2023-04-26T01:14:25;8.80;;;1.65;;
22557;SDS011;11445;53.816;8.902;2023-04-26T01:16:54;2.80;;;0.95;;
22557;SDS011;11445;53.816;8.902;2023-04-26T01:19:22;10.50;;;1.77;;
22557;SDS011;11445;53.816;8.902;2023-04-26T01:21:49;11.45;;;1.35;;
22557;SDS011;11445;53.816;8.902;2023-04-26T01:24:18;5.20;;;1.63;;
22557;SDS011;11445;53.816;8.902;2023-04-26T01:26:45;6.95;;;1.27;;
22557;SDS011;11445;53.816;8.902;2023-04-26T01:29:13;3.78;;;1.20;;
22557;SDS011;11445;53.816;8.902;2023-04-26T01:31:41;4.07;;;1.27;;
22557;SDS011;11445;53.816;8.902;2023-04-26T01:34:08;10.15;;;1.63;;
22557;SDS011;11445;53.816;8.902;2023-04-26T01:36:36;3.88;;;1.65;;
22557;SDS011;11445;53.816;8.902;2023-04-26T01:39:03;10.05;;;1.65;;
22557;SDS011;11445;53.816;8.902;2023-04-26T01:41:31;4.57;;;1.63;;
22557;SDS011;11445;53.816;8.902;2023-04-26T01:43:58;9.38;;;1.45;;
22557;SDS011;11445;53.816;8.902;2023-04-26T01:46:26;8.10;;;1.63;;
22557;SDS011;11445;53.816;8.902;2023-04-26T01:48:53;6.97;;;1.60;;
22557;SDS011;11445;53.816;8.902;2023-04-26T01:51:21;12.75;;;1.83;;
22557;SDS011;11445;53.816;8.902;2023-04-26T01:53:48;4.75;;;1.63;;
22557;SDS011;11445;53.816;8.902;2023-04-26T01:56:15;4.95;;;1.75;;
22557;SDS011;11445;53.816;8.902;2023-04-26T01:58:44;8.57;;;2.17;;
22557;SDS011;11445;53.816;8.902;2023-04-26T02:01:11;5.68;;;1.83;;
22557;SDS011;11445;53.816;8.902;2023-04-26T02:03:38;3.65;;;1.73;;
22557;SDS011;11445;53.816;8.902;2023-04-26T02:06:05;7.35;;;1.50;;
22557;SDS011;11445;53.816;8.902;2023-04-26T02:08:33;7.57;;;1.77;;
22557;SDS011;11445;53.816;8.902;2023-04-26T02:11:00;9.65;;;1.70;;
22557;SDS011;11445;53.816;8.902;2023-04-26T02:13:27;13.15;;;2.47;;
22557;SDS011;11445;53.816;8.902;2023-04-26T02:15:55;7.53;;;1.48;;
22557;SDS011;11445;53.816;8.902;2023-04-26T02:18:23;6.78;;;1.80;;
22557;SDS011;11445;53.816;8.902;2023-04-26T02:20:50;2.92;;;1.40;;
22557;SDS011;11445;53.816;8.902;2023-04-26T02:23:17;5.38;;;1.50;;
22557;SDS011;11445;53.816;8.902;2023-04-26T02:25:45;4.18;;;1.25;;
22557;SDS011;11445;53.816;8.902;2023-04-26T02:28:12;4.50;;;1.10;;
22557;SDS011;11445;53.816;8.902;2023-04-26T02:30:40;3.97;;;1.48;;
22557;SDS011;11445;53.816;8.902;2023-04-26T02:33:08;5.60;;;1.50;;
22557;SDS011;11445;53.816;8.902;2023-04-26T02:35:36;6.22;;;1.52;;
22557;SDS011;11445;53.816;8.902;2023-04-26T02:38:03;4.47;;;1.77;;
22557;SDS011;11445;53.816;8.902;2023-04-26T02:40:30;7.00;;;1.55;;
22557;SDS011;11445;53.816;8.902;2023-04-26T02:42:57;6.97;;;1.95;;
22557;SDS011;11445;53.816;8.902;2023-04-26T02:45:24;8.27;;;2.00;;
22557;SDS011;11445;53.816;8.902;2023-04-26T02:47:51;9.07;;;2.00;;
22557;SDS011;11445;53.816;8.902;2023-04-26T02:50:20;5.80;;;1.90;;
22557;SDS011;11445;53.816;8.902;2023-04-26T02:52:47;14.85;;;3.85;;
22557;SDS011;11445;53.816;8.902;2023-04-26T02:55:14;11.88;;;2.65;;
22557;SDS011;11445;53.816;8.902;2023-04-26T02:57:41;6.60;;;2.30;;
22557;SDS011;11445;53.816;8.902;2023-04-26T03:00:08;7.40;;;2.85;;
22557;SDS011;11445;53.816;8.902;2023-04-26T03:02:37;5.15;;;2.38;;
22557;SDS011;11445;53.816;8.902;2023-04-26T03:05:05;7.25;;;2.45;;
22557;SDS011;11445;53.816;8.902;2023-04-26T03:07:35;6.32;;;2.30;;
22557;SDS011;11445;53.816;8.902;2023-04-26T03:10:02;6.15;;;2.17;;
22557;SDS011;11445;53.816;8.902;2023-04-26T03:12:30;8.82;;;2.35;;
22557;SDS011;11445;53.816;8.902;2023-04-26T03:14:57;4.68;;;2.10;;
22557;SDS011;11445;53.816;8.902;2023-04-26T03:17:24;11.68;;;2.70;;
22557;SDS011;11445;53.816;8.902;2023-04-26T03:19:51;6.00;;;2.50;;
22557;SDS011;11445;53.816;8.902;2023-04-26T03:22:18;7.22;;;2.30;;
22557;SDS011;11445;53.816;8.902;2023-04-26T03:24:47;9.27;;;2.72;;
22557;SDS011;11445;53.816;8.902;2023-04-26T03:27:14;7.00;;;2.45;;
22557;SDS011;11445;53.816;8.902;2023-04-26T03:29:41;7.97;;;2.67;;
22557;SDS011;11445;53.816;8.902;2023-04-26T03:32:08;11.75;;;2.58;;
22557;SDS011;11445;53.816;8.902;2023-04-26T03:34:35;9.30;;;2.72;;
22557;SDS011;11445;53.816;8.902;2023-04-26T03:37:02;9.45;;;3.03;;
22557;SDS011;11445;53.816;8.902;2023-04-26T03:39:29;14.20;;;3.38;;
22557;SDS011;11445;53.816;8.902;2023-04-26T03:41:58;9.52;;;2.70;;
22557;SDS011;11445;53.816;8.902;2023-04-26T03:44:25;6.63;;;2.60;;
22557;SDS011;11445;53.816;8.902;2023-04-26T03:46:52;6.63;;;2.58;;
22557;SDS011;11445;53.816;8.902;2023-04-26T03:49:20;6.63;;;2.72;;
22557;SDS011;11445;53.816;8.902;2023-04-26T03:51:47;11.63;;;2.83;;
22557;SDS011;11445;53.816;8.902;2023-04-26T03:54:14;9.07;;;2.90;;
22557;SDS011;11445;53.816;8.902;2023-04-26T03:56:41;12.80;;;2.90;;
22557;SDS011;11445;53.816;8.902;2023-04-26T03:59:09;16.13;;;3.35;;
22557;SDS011;11445;53.816;8.902;2023-04-26T04:01:37;14.88;;;3.33;;
22557;SDS011;11445;53.816;8.902;2023-04-26T04:04:04;11.15;;;3.35;;
22557;SDS011;11445;53.816;8.902;2023-04-26T04:06:31;11.20;;;3.60;;
22557;SDS011;11445;53.816;8.902;2023-04-26T04:08:58;16.52;;;4.05;;
22557;SDS011;11445;53.816;8.902;2023-04-26T04:11:25;12.65;;;3.08;;
22557;SDS011;11445;53.816;8.902;2023-04-26T04:13:52;11.63;;;2.90;;
22557;SDS011;11445;53.816;8.902;2023-04-26T04:16:21;8.30;;;2.70;;
22557;SDS011;11445;53.816;8.902;2023-04-26T04:18:48;11.48;;;3.10;;
22557;SDS011;11445;53.816;8.902;2023-04-26T04:21:15;15.27;;;3.60;;
22557;SDS011;11445;53.816;8.902;2023-04-26T04:23:42;12.25;;;3.25;;
22557;SDS011;11445;53.816;8.902;2023-04-26T04:26:09;8.57;;;3.05;;
22557;SDS011;11445;53.816;8.902;2023-04-26T04:28:36;12.50;;;3.47;;
22557;SDS011;11445;53.816;8.902;2023-04-26T04:31:05;15.15;;;3.25;;
22557;SDS011;11445;53.816;8.902;2023-04-26T04:33:35;13.38;;;3.88;;
22557;SDS011;11445;53.816;8.902;2023-04-26T04:36:02;17.38;;;3.38;;
22557;SDS011;11445;53.816;8.902;2023-04-26T04:38:30;13.15;;;4.13;;
22557;SDS011;11445;53.816;8.902;2023-04-26T04:40:57;10.20;;;3.28;;
22557;SDS011;11445;53.816;8.902;2023-04-26T04:43:24;10.63;;;3.55;;
22557;SDS011;11445;53.816;8.902;2023-04-26T04:45:52;13.25;;;3.58;;
22557;SDS011;11445;53.816;8.902;2023-04-26T04:48:19;15.52;;;3.17;;
22557;SDS011;11445;53.816;8.902;2023-04-26T04:50:48;11.43;;;3.22;;
22557;SDS011;11445;53.816;8.902;2023-04-26T04:53:15;11.60;;;3.13;;
22557;SDS011;11445;53.816;8.902;2023-04-26T04:55:42;25.10;;;3.55;;
22557;SDS011;11445;53.816;8.902;2023-04-26T04:58:09;12.30;;;3.60;;
22557;SDS011;11445;53.816;8.902;2023-04-26T05:00:38;8.20;;;2.97;;
22557;SDS011;11445;53.816;8.902;2023-04-26T05:03:05;19.45;;;2.80;;
22557;SDS011;11445;53.816;8.902;2023-04-26T05:05:33;9.43;;;2.45;;
22557;SDS011;11445;53.816;8.902;2023-04-26T05:08:02;6.30;;;2.60;;
22557;SDS011;11445;53.816;8.902;2023-04-26T05:10:31;12.85;;;2.85;;
22557;SDS011;11445;53.816;8.902;2023-04-26T05:12:59;15.05;;;2.78;;
22557;SDS011;11445;53.816;8.902;2023-04-26T05:15:26;10.35;;;2.22;;
22557;SDS011;11445;53.816;8.902;2023-04-26T05:17:53;14.23;;;2.90;;
22557;SDS011;11445;53.816;8.902;2023-04-26T05:20:20;10.25;;;2.90;;
22557;SDS011;11445;53.816;8.902;2023-04-26T05:22:47;9.60;;;2.25;;
22557;SDS011;11445;53.816;8.902;2023-04-26T05:25:16;10.68;;;2.15;;
22557;SDS011;11445;53.816;8.902;2023-04-26T05:27:43;11.85;;;1.70;;
22557;SDS011;11445;53.816;8.902;2023-04-26T05:30:11;7.05;;;2.05;;
22557;SDS011;11445;53.816;8.902;2023-04-26T05:32:38;6.95;;;1.88;;
22557;SDS011;11445;53.816;8.902;2023-04-26T05:35:05;9.55;;;1.70;;
22557;SDS011;11445;53.816;8.902;2023-04-26T05:37:34;5.35;;;1.38;;
22557;SDS011;11445;53.816;8.902;2023-04-26T05:40:01;6.18;;;1.85;;
22557;SDS011;11445;53.816;8.902;2023-04-26T05:42:30;5.20;;;1.75;;
22557;SDS011;11445;53.816;8.902;2023-04-26T05:44:57;5.63;;;1.52;;
22557;SDS011;11445;53.816;8.902;2023-04-26T05:47:24;8.80;;;1.70;;
22557;SDS011;11445;53.816;8.902;2023-04-26T05:49:51;2.63;;;1.38;;
22557;SDS011;11445;53.816;8.902;2023-04-26T05:52:18;8.50;;;1.77;;
22557;SDS011;11445;53.816;8.902;2023-04-26T05:54:45;9.18;;;2.00;;
22557;SDS011;11445;53.816;8.902;2023-04-26T05:57:12;6.25;;;1.95;;
22557;SDS011;11445;53.816;8.902;2023-04-26T05:59:41;4.72;;;1.90;;
22557;SDS011;11445;53.816;8.902;2023-04-26T06:02:08;10.45;;;2.30;;
22557;SDS011;11445;53.816;8.902;2023-04-26T06:04:35;6.35;;;1.77;;
22557;SDS011;11445;53.816;8.902;2023-04-26T06:07:02;11.45;;;2.70;;
22557;SDS011;11445;53.816;8.902;2023-04-26T06:09:31;6.43;;;1.73;;
22557;SDS011;11445;53.816;8.902;2023-04-26T06:11:58;11.98;;;2.30;;
22557;SDS011;11445;53.816;8.902;2023-04-26T06:14:26;7.93;;;1.48;;
22557;SDS011;11445;53.816;8.902;2023-04-26T06:16:54;10.70;;;2.00;;
22557;SDS011;11445;53.816;8.902;2023-04-26T06:19:22;7.72;;;1.98;;
22557;SDS011;11445;53.816;8.902;2023-04-26T06:21:49;6.97;;;2.33;;
22557;SDS011;11445;53.816;8.902;2023-04-26T06:24:18;9.77;;;2.40;;
22557;SDS011;11445;53.816;8.902;2023-04-26T06:26:46;18.73;;;2.35;;
22557;SDS011;11445;53.816;8.902;2023-04-26T06:29:13;11.20;;;2.05;;
22557;SDS011;11445;53.816;8.902;2023-04-26T06:31:40;7.65;;;2.25;;
22557;SDS011;11445;53.816;8.902;2023-04-26T06:34:08;9.88;;;1.83;;
22557;SDS011;11445;53.816;8.902;2023-04-26T06:36:35;11.77;;;2.05;;
22557;SDS011;11445;53.816;8.902;2023-04-26T06:39:02;6.15;;;1.73;;
22557;SDS011;11445;53.816;8.902;2023-04-26T06:41:30;19.75;;;2.55;;
22557;SDS011;11445;53.816;8.902;2023-04-26T06:43:57;10.45;;;2.17;;
22557;SDS011;11445;53.816;8.902;2023-04-26T06:46:24;7.28;;;2.15;;
22557;SDS011;11445;53.816;8.902;2023-04-26T06:48:51;11.38;;;2.03;;
22557;SDS011;11445;53.816;8.902;2023-04-26T06:51:20;8.57;;;1.90;;
22557;SDS011;11445;53.816;8.902;2023-04-26T06:53:47;7.57;;;1.80;;
22557;SDS011;11445;53.816;8.902;2023-04-26T06:56:14;5.03;;;1.45;;
22557;SDS011;11445;53.816;8.902;2023-04-26T06:58:50;9.55;;;1.42;;
22557;SDS011;11445;53.816;8.902;2023-04-26T07:01:24;5.25;;;1.13;;
22557;SDS011;11445;53.816;8.902;2023-04-26T07:03:53;4.18;;;1.30;;
22557;SDS011;11445;53.816;8.902;2023-04-26T07:06:23;7.30;;;1.10;;
22557;SDS011;11445;53.816;8.902;2023-04-26T07:08:51;7.65;;;1.73;;
22557;SDS011;11445;53.816;8.902;2023-04-26T07:11:18;4.13;;;1.00;;
22557;SDS011;11445;53.816;8.902;2023-04-26T07:13:45;6.78;;;1.70;;
22557;SDS011;11445;53.816;8.902;2023-04-26T07:16:12;5.25;;;1.27;;
22557;SDS011;11445;53.816;8.902;2023-04-26T07:18:40;9.98;;;1.33;;
22557;SDS011;11445;53.816;8.902;2023-04-26T07:21:07;8.27;;;1.50;;
22557;SDS011;11445;53.816;8.902;2023-04-26T07:23:35;6.38;;;1.02;;
22557;SDS011;11445;53.816;8.902;2023-04-26T07:26:03;9.52;;;1.73;;
22557;SDS011;11445;53.816;8.902;2023-04-26T07:28:30;10.13;;;1.27;;
22557;SDS011;11445;53.816;8.902;2023-04-26T07:30:57;8.27;;;1.48;;
22557;SDS011;11445;53.816;8.902;2023-04-26T07:33:25;9.13;;;1.80;;
22557;SDS011;11445;53.816;8.902;2023-04-26T07:35:52;13.45;;;1.38;;
22557;SDS011;11445;53.816;8.902;2023-04-26T07:38:20;8.68;;;1.65;;
22557;SDS011;11445;53.816;8.902;2023-04-26T07:40:49;3.63;;;1.27;;
22557;SDS011;11445;53.816;8.902;2023-04-26T07:43:17;3.15;;;1.30;;
22557;SDS011;11445;53.816;8.902;2023-04-26T07:45:44;4.90;;;1.33;;
22557;SDS011;11445;53.816;8.902;2023-04-26T07:48:12;9.60;;;2.35;;
22557;SDS011;11445;53.816;8.902;2023-04-26T07:50:39;7.43;;;1.45;;
22557;SDS011;11445;53.816;8.902;2023-04-26T07:53:06;12.65;;;1.60;;
22557;SDS011;11445;53.816;8.902;2023-04-26T07:55:33;5.65;;;1.70;;
22557;SDS011;11445;53.816;8.902;2023-04-26T07:58:01;12.32;;;1.77;;
22557;SDS011;11445;53.816;8.902;2023-04-26T08:00:28;8.35;;;1.38;;
22557;SDS011;11445;53.816;8.902;2023-04-26T08:02:55;9.77;;;1.92;;
22557;SDS011;11445;53.816;8.902;2023-04-26T08:05:22;5.82;;;1.40;;
22557;SDS011;11445;53.816;8.902;2023-04-26T08:07:49;8.23;;;2.10;;
22557;SDS011;11445;53.816;8.902;2023-04-26T08:10:16;7.32;;;2.08;;
22557;SDS011;11445;53.816;8.902;2023-04-26T08:12:44;4.88;;;1.25;;
22557;SDS011;11445;53.816;8.902;2023-04-26T08:15:12;5.75;;;1.50;;
22557;SDS011;11445;53.816;8.902;2023-04-26T08:17:39;4.50;;;1.20;;
22557;SDS011;11445;53.816;8.902;2023-04-26T08:20:07;2.00;;;1.00;;
22557;SDS011;11445;53.816;8.902;2023-04-26T08:22:34;2.50;;;1.33;;
22557;SDS011;11445;53.816;8.902;2023-04-26T08:25:01;3.65;;;1.40;;
22557;SDS011;11445;53.816;8.902;2023-04-26T08:27:30;6.32;;;1.38;;
22557;SDS011;11445;53.816;8.902;2023-04-26T08:29:58;5.25;;;1.42;;
22557;SDS011;11445;53.816;8.902;2023-04-26T08:32:26;6.30;;;1.48;;
22557;SDS011;11445;53.816;8.902;2023-04-26T08:34:54;8.38;;;1.88;;
22557;SDS011;11445;53.816;8.902;2023-04-26T08:37:21;6.03;;;1.23;;
22557;SDS011;11445;53.816;8.902;2023-04-26T08:39:48;8.07;;;1.63;;
22557;SDS011;11445;53.816;8.902;2023-04-26T08:42:15;6.78;;;1.40;;
22557;SDS011;11445;53.816;8.902;2023-04-26T08:44:43;9.98;;;2.30;;
22557;SDS011;11445;53.816;8.902;2023-04-26T08:47:12;13.30;;;1.88;;
22557;SDS011;11445;53.816;8.902;2023-04-26T08:49:44;3.72;;;1.27;;
22557;SDS011;11445;53.816;8.902;2023-04-26T08:52:14;11.90;;;2.77;;
22557;SDS011;11445;53.816;8.902;2023-04-26T08:54:46;12.55;;;1.60;;
22557;SDS011;11445;53.816;8.902;2023-04-26T08:57:15;9.23;;;1.55;;
22557;SDS011;11445;53.816;8.902;2023-04-26T08:59:43;6.68;;;1.33;;
22557;SDS011;11445;53.816;8.902;2023-04-26T09:02:12;9.40;;;1.48;;
22557;SDS011;11445;53.816;8.902;2023-04-26T09:04:44;6.38;;;1.45;;
22557;SDS011;11445;53.816;8.902;2023-04-26T09:07:12;7.95;;;1.30;;
22557;SDS011;11445;53.816;8.902;2023-04-26T09:09:46;2.70;;;1.17;;
22557;SDS011;11445;53.816;8.902;2023-04-26T09:12:16;4.80;;;1.20;;
22557;SDS011;11445;53.816;8.902;2023-04-26T09:14:44;4.05;;;1.45;;
22557;SDS011;11445;53.816;8.902;2023-04-26T09:17:27;3.50;;;1.45;;
22557;SDS011;11445;53.816;8.902;2023-04-26T09:19:57;7.63;;;1.80;;
22557;SDS011;11445;53.816;8.902;2023-04-26T09:22:31;3.80;;;1.20;;
22557;SDS011;11445;53.816;8.902;2023-04-26T09:25:00;7.60;;;1.23;;
22557;SDS011;11445;53.816;8.902;2023-04-26T09:27:31;2.70;;;1.13;;
22557;SDS011;11445;53.816;8.902;2023-04-26T09:30:01;5.65;;;1.20;;
22557;SDS011;11445;53.816;8.902;2023-04-26T09:32:44;6.35;;;1.50;;
22557;SDS011;11445;53.816;8.902;2023-04-26T09:35:28;3.65;;;1.38;;
22557;SDS011;11445;53.816;8.902;2023-04-26T09:37:57;6.00;;;1.83;;
22557;SDS011;11445;53.816;8.902;2023-04-26T09:40:26;6.07;;;1.70;;
22557;SDS011;11445;53.816;8.902;2023-04-26T09:42:58;15.70;;;1.50;;
22557;SDS011;11445;53.816;8.902;2023-04-26T09:45:26;3.63;;;1.38;;
22557;SDS011;11445;53.816;8.902;2023-04-26T09:47:55;9.63;;;1.33;;
22557;SDS011;11445;53.816;8.902;2023-04-26T09:50:42;12.15;;;1.55;;
22557;SDS011;11445;53.816;8.902;2023-04-26T09:53:11;4.35;;;1.10;;
22557;SDS011;11445;53.816;8.902;2023-04-26T09:55:51;9.35;;;1.20;;
22557;SDS011;11445;53.816;8.902;2023-04-26T09:58:19;5.50;;;1.02;;
22557;SDS011;11445;53.816;8.902;2023-04-26T10:00:47;2.97;;;1.00;;
22557;SDS011;11445;53.816;8.902;2023-04-26T10:03:16;3.70;;;1.02;;
22557;SDS011;11445;53.816;8.902;2023-04-26T10:05:46;5.47;;;1.33;;
22557;SDS011;11445;53.816;8.902;2023-04-26T10:08:13;5.22;;;1.13;;
22557;SDS011;11445;53.816;8.902;2023-04-26T10:10:41;5.38;;;1.50;;
22557;SDS011;11445;53.816;8.902;2023-04-26T10:13:10;5.07;;;1.13;;
22557;SDS011;11445;53.816;8.902;2023-04-26T10:15:38;8.02;;;1.63;;
22557;SDS011;11445;53.816;8.902;2023-04-26T10:18:05;5.22;;;1.42;;
22557;SDS011;11445;53.816;8.902;2023-04-26T10:20:32;7.28;;;1.20;;
22557;SDS011;11445;53.816;8.902;2023-04-26T10:23:08;5.55;;;1.40;;
22557;SDS011;11445;53.816;8.902;2023-04-26T10:25:44;11.50;;;1.45;;
22557;SDS011;11445;53.816;8.902;2023-04-26T10:28:11;6.78;;;1.48;;
22557;SDS011;11445;53.816;8.902;2023-04-26T10:33:30;9.13;;;1.35;;
22557;SDS011;11445;53.816;8.902;2023-04-26T10:36:07;11.57;;;1.70;;
22557;SDS011;11445;53.816;8.902;2023-04-26T10:38:37;5.70;;;1.38;;
22557;SDS011;11445;53.816;8.902;2023-04-26T10:43:59;6.55;;;1.48;;
22557;SDS011;11445;53.816;8.902;2023-04-26T10:46:48;4.97;;;1.50;;
22557;SDS011;11445;53.816;8.902;2023-04-26T10:49:17;8.05;;;1.48;;
22557;SDS011;11445;53.816;8.902;2023-04-26T10:54:51;5.90;;;1.13;;
22557;SDS011;11445;53.816;8.902;2023-04-26T10:57:22;5.22;;;1.00;;
22557;SDS011;11445;53.816;8.902;2023-04-26T11:03:05;7.95;;;1.50;;
22557;SDS011;11445;53.816;8.902;2023-04-26T11:05:34;2.17;;;1.05;;
22557;SDS011;11445;53.816;8.902;2023-04-26T11:08:03;8.60;;;1.10;;
22557;SDS011;11445;53.816;8.902;2023-04-26T11:10:33;10.02;;;1.52;;
22557;SDS011;11445;53.816;8.902;2023-04-26T11:13:02;9.20;;;1.40;;
22557;SDS011;11445;53.816;8.902;2023-04-26T11:15:30;6.00;;;1.27;;
22557;SDS011;11445;53.816;8.902;2023-04-26T11:17:57;6.05;;;1.00;;
22557;SDS011;11445;53.816;8.902;2023-04-26T11:20:27;4.82;;;1.08;;
22557;SDS011;11445;53.816;8.902;2023-04-26T11:22:55;10.32;;;1.35;;
22557;SDS011;11445;53.816;8.902;2023-04-26T11:25:23;5.90;;;1.13;;
22557;SDS011;11445;53.816;8.902;2023-04-26T11:27:57;8.60;;;1.25;;
22557;SDS011;11445;53.816;8.902;2023-04-26T11:30:26;5.82;;;1.48;;
22557;SDS011;11445;53.816;8.902;2023-04-26T11:32:54;8.25;;;1.73;;
22557;SDS011;11445;53.816;8.902;2023-04-26T11:35:22;7.18;;;1.30;;
22557;SDS011;11445;53.816;8.902;2023-04-26T11:37:50;8.30;;;1.38;;
22557;SDS011;11445;53.816;8.902;2023-04-26T11:40:17;9.23;;;1.63;;
22557;SDS011;11445;53.816;8.902;2023-04-26T11:42:45;5.78;;;1.25;;
22557;SDS011;11445;53.816;8.902;2023-04-26T11:45:17;5.20;;;1.48;;
22557;SDS011;11445;53.816;8.902;2023-04-26T11:47:44;9.27;;;1.75;;
22557;SDS011;11445;53.816;8.902;2023-04-26T11:50:12;7.07;;;1.63;;
22557;SDS011;11445;53.816;8.902;2023-04-26T11:52:40;15.73;;;2.05;;
22557;SDS011;11445;53.816;8.902;2023-04-26T11:55:08;7.97;;;1.50;;
22557;SDS011;11445;53.816;8.902;2023-04-26T11:57:35;3.80;;;1.40;;
22557;SDS011;11445;53.816;8.902;2023-04-26T12:00:06;12.02;;;1.70;;
22557;SDS011;11445;53.816;8.902;2023-04-26T12:02:42;11.63;;;2.10;;
22557;SDS011;11445;53.816;8.902;2023-04-26T12:05:10;6.05;;;1.40;;
22557;SDS011;11445;53.816;8.902;2023-04-26T12:07:48;11.52;;;1.58;;
22557;SDS011;11445;53.816;8.902;2023-04-26T12:10:17;5.63;;;1.05;;
22557;SDS011;11445;53.816;8.902;2023-04-26T12:12:48;10.43;;;1.63;;
22557;SDS011;11445;53.816;8.902;2023-04-26T12:15:16;4.63;;;1.30;;
22557;SDS011;11445;53.816;8.902;2023-04-26T12:17:52;3.28;;;1.20;;
22557;SDS011;11445;53.816;8.902;2023-04-26T12:20:27;6.95;;;0.95;;
22557;SDS011;11445;53.816;8.902;2023-04-26T12:22:56;5.35;;;1.20;;
22557;SDS011;11445;53.816;8.902;2023-04-26T12:25:27;2.10;;;0.93;;
22557;SDS011;11445;53.816;8.902;2023-04-26T12:27:55;4.68;;;1.23;;
22557;SDS011;11445;53.816;8.902;2023-04-26T12:30:22;3.45;;;0.90;;
22557;SDS011;11445;53.816;8.902;2023-04-26T12:32:49;3.65;;;1.00;;
22557;SDS011;11445;53.816;8.902;2023-04-26T12:35:17;5.40;;;1.42;;
22557;SDS011;11445;53.816;8.902;2023-04-26T12:37:44;5.63;;;1.98;;
22557;SDS011;11445;53.816;8.902;2023-04-26T12:40:12;10.50;;;2.03;;
22557;SDS011;11445;53.816;8.902;2023-04-26T12:42:40;9.52;;;1.33;;
22557;SDS011;11445;53.816;8.902;2023-04-26T12:45:07;5.07;;;1.45;;
22557;SDS011;11445;53.816;8.902;2023-04-26T12:47:35;17.13;;;2.28;;
22557;SDS011;11445;53.816;8.902;2023-04-26T12:50:02;3.90;;;1.70;;
22557;SDS011;11445;53.816;8.902;2023-04-26T12:52:31;5.95;;;1.55;;
22557;SDS011;11445;53.816;8.902;2023-04-26T12:54:58;7.25;;;1.35;;
22557;SDS011;11445;53.816;8.902;2023-04-26T12:57:25;5.85;;;2.00;;
22557;SDS011;11445;53.816;8.902;2023-04-26T12:59:53;9.13;;;1.88;;
22557;SDS011;11445;53.816;8.902;2023-04-26T13:02:20;9.50;;;1.10;;
22557;SDS011;11445;53.816;8.902;2023-04-26T13:04:48;3.10;;;1.08;;
22557;SDS011;11445;53.816;8.902;2023-04-26T13:07:15;5.30;;;1.10;;
22557;SDS011;11445;53.816;8.902;2023-04-26T13:09:44;6.20;;;1.63;;
22557;SDS011;11445;53.816;8.902;2023-04-26T13:12:11;4.95;;;1.13;;
22557;SDS011;11445;53.816;8.902;2023-04-26T13:14:38;8.18;;;1.02;;
22557;SDS011;11445;53.816;8.902;2023-04-26T13:17:06;5.32;;;1.33;;
22557;SDS011;11445;53.816;8.902;2023-04-26T13:19:35;4.95;;;1.30;;
22557;SDS011;11445;53.816;8.902;2023-04-26T13:22:02;5.53;;;1.08;;
22557;SDS011;11445;53.816;8.902;2023-04-26T13:24:32;11.45;;;2.03;;
22557;SDS011;11445;53.816;8.902;2023-04-26T13:27:01;11.07;;;1.60;;
22557;SDS011;11445;53.816;8.902;2023-04-26T13:29:29;6.20;;;1.33;;
22557;SDS011;11445;53.816;8.902;2023-04-26T13:31:57;4.43;;;1.33;;
22557;SDS011;11445;53.816;8.902;2023-04-26T13:34:24;6.93;;;1.63;;
22557;SDS011;11445;53.816;8.902;2023-04-26T13:36:51;17.52;;;2.08;;
22557;SDS011;11445;53.816;8.902;2023-04-26T13:39:20;7.68;;;1.92;;
22557;SDS011;11445;53.816;8.902;2023-04-26T13:41:48;4.03;;;1.60;;
22557;SDS011;11445;53.816;8.902;2023-04-26T13:44:17;3.05;;;1.60;;
22557;SDS011;11445;53.816;8.902;2023-04-26T13:46:45;5.88;;;1.33;;
22557;SDS011;11445;53.816;8.902;2023-04-26T13:49:12;11.40;;;1.63;;
22557;SDS011;11445;53.816;8.902;2023-04-26T13:51:40;11.82;;;1.85;;
22557;SDS011;11445;53.816;8.902;2023-04-26T13:54:08;12.43;;;2.20;;
22557;SDS011;11445;53.816;8.902;2023-04-26T13:56:35;10.93;;;2.05;;
22557;SDS011;11445;53.816;8.902;2023-04-26T13:59:03;12.48;;;1.80;;
22557;SDS011;11445;53.816;8.902;2023-04-26T14:01:33;10.23;;;1.80;;
22557;SDS011;11445;53.816;8.902;2023-04-26T14:04:01;10.13;;;1.60;;
22557;SDS011;11445;53.816;8.902;2023-04-26T14:06:28;7.85;;;1.65;;
22557;SDS011;11445;53.816;8.902;2023-04-26T14:08:56;5.68;;;1.45;;
22557;SDS011;11445;53.816;8.902;2023-04-26T14:11:23;8.38;;;1.63;;
22557;SDS011;11445;53.816;8.902;2023-04-26T14:13:50;4.00;;;1.20;;
22557;SDS011;11445;53.816;8.902;2023-04-26T14:16:20;9.77;;;2.63;;
22557;SDS011;11445;53.816;8.902;2023-04-26T14:18:49;4.65;;;1.15;;
22557;SDS011;11445;53.816;8.902;2023-04-26T14:21:17;10.30;;;1.80;;
22557;SDS011;11445;53.816;8.902;2023-04-26T14:23:44;8.75;;;2.10;;
22557;SDS011;11445;53.816;8.902;2023-04-26T14:26:11;10.90;;;1.83;;
22557;SDS011;11445;53.816;8.902;2023-04-26T14:28:38;10.00;;;1.92;;
22557;SDS011;11445;53.816;8.902;2023-04-26T14:31:06;7.43;;;1.60;;
22557;SDS011;11445;53.816;8.902;2023-04-26T14:33:33;9.43;;;1.52;;
22557;SDS011;11445;53.816;8.902;2023-04-26T14:36:02;11.80;;;1.70;;
22557;SDS011;11445;53.816;8.902;2023-04-26T14:38:29;7.18;;;1.80;;
22557;SDS011;11445;53.816;8.902;2023-04-26T14:40:57;8.55;;;1.70;;
22557;SDS011;11445;53.816;8.902;2023-04-26T14:43:24;8.18;;;1.30;;
22557;SDS011;11445;53.816;8.902;2023-04-26T14:45:51;11.35;;;1.70;;
22557;SDS011;11445;53.816;8.902;2023-04-26T14:48:18;12.15;;;1.80;;
22557;SDS011;11445;53.816;8.902;2023-04-26T14:50:45;4.32;;;1.38;;
22557;SDS011;11445;53.816;8.902;2023-04-26T14:53:13;10.70;;;1.52;;
22557;SDS011;11445;53.816;8.902;2023-04-26T14:55:40;4.47;;;1.70;;
22557;SDS011;11445;53.816;8.902;2023-04-26T14:58:07;5.95;;;1.40;;
22557;SDS011;11445;53.816;8.902;2023-04-26T15:00:34;4.50;;;1.30;;